Time;durP1;ratioP1;P1;durP2;ratioP2;P2;SDS_P1;SDS_P2;PMS_P1;PMS_P2;Temp;Humidity;BMP_temperature;BMP_pressure;BME280_temperature;BME280_humidity;BME280_pressure;Samples;Min_cycle;Max_cycle;Signal;HPM_P1;HPM_P2
2023/10/04 00:01:31;;;;;;;11.02;4.72;;;;;;;11.65;100.00;101578.50;6023109;28;20057;-64
2023/10/04 00:04:26;;;;;;;11.10;5.03;;;;;;;11.63;100.00;101561.03;6029740;28;20034;-64
2023/10/04 00:07:22;;;;;;;11.37;5.40;;;;;;;11.60;100.00;101569.25;6029084;28;20030;-65
2023/10/04 00:10:18;;;;;;;10.52;5.10;;;;;;;11.65;100.00;101573.19;6019756;28;20544;-64
2023/10/04 00:13:13;;;;;;;12.00;5.28;;;;;;;11.72;100.00;101581.50;6029351;28;20073;-64
2023/10/04 00:16:09;;;;;;;14.50;6.13;;;;;;;11.60;100.00;101567.44;6028786;28;20038;-64
2023/10/04 00:19:06;;;;;;;13.23;6.20;;;;;;;11.64;100.00;101582.13;6028715;28;20265;-64
2023/10/04 00:22:01;;;;;;;12.73;6.05;;;;;;;11.68;100.00;101577.41;6029151;28;20034;-64
2023/10/04 00:24:57;;;;;;;15.18;5.68;;;;;;;11.68;100.00;101583.56;6028101;28;20543;-65
2023/10/04 00:27:56;;;;;;;11.73;6.13;;;;;;;11.70;100.00;101589.63;6028440;28;20045;-64
2023/10/04 00:30:52;;;;;;;13.15;6.07;;;;;;;11.64;100.00;101571.50;6027209;28;20120;-64
2023/10/04 00:33:49;;;;;;;12.17;5.83;;;;;;;11.63;100.00;101571.66;6029115;28;20042;-64
2023/10/04 00:36:44;;;;;;;10.45;5.20;;;;;;;11.61;100.00;101571.75;6028338;28;20052;-64
2023/10/04 00:39:39;;;;;;;10.13;5.50;;;;;;;11.66;100.00;101590.81;6028467;28;20038;-64
2023/10/04 00:42:35;;;;;;;10.90;5.50;;;;;;;11.61;100.00;101587.72;6027805;28;20053;-65
2023/10/04 00:45:33;;;;;;;13.00;5.47;;;;;;;11.53;100.00;101570.72;6027220;28;20031;-64
2023/10/04 00:48:34;;;;;;;11.25;5.20;;;;;;;11.57;100.00;101570.38;6047532;28;20045;-65
2023/10/04 00:51:35;;;;;;;11.55;5.43;;;;;;;11.63;100.00;101580.44;6028446;28;20058;-64
2023/10/04 00:54:31;;;;;;;17.45;5.72;;;;;;;11.62;100.00;101589.41;6028597;28;20035;-64
2023/10/04 00:57:26;;;;;;;12.07;5.18;;;;;;;11.60;100.00;101594.00;6026999;28;20043;-64
2023/10/04 01:00:25;;;;;;;14.77;5.63;;;;;;;11.53;100.00;101574.25;6023707;28;20031;-64
2023/10/04 01:03:24;;;;;;;14.02;5.90;;;;;;;11.63;100.00;101585.75;6026983;28;20272;-64
2023/10/04 01:06:19;;;;;;;12.57;4.90;;;;;;;11.65;100.00;101602.44;6027842;28;20038;-65
2023/10/04 01:09:15;;;;;;;12.33;5.10;;;;;;;11.50;100.00;101579.81;6027527;28;20042;-64
2023/10/04 01:12:10;;;;;;;11.05;4.38;;;;;;;11.51;100.00;101581.50;6022562;28;20038;-64
2023/10/04 01:15:25;;;;;;;10.40;4.47;;;;;;;11.48;100.00;101575.59;6027943;28;20073;-64
2023/10/04 01:18:22;;;;;;;10.70;4.32;;;;;;;11.44;100.00;101575.00;6025355;28;20109;-64
2023/10/04 01:21:17;;;;;;;10.57;4.07;;;;;;;11.39;100.00;101576.41;6027967;28;20105;-64
2023/10/04 01:24:13;;;;;;;12.27;4.37;;;;;;;11.46;100.00;101580.22;6027503;28;20042;-64
2023/10/04 01:27:08;;;;;;;14.33;4.23;;;;;;;11.49;100.00;101593.22;6027076;28;20034;-64
2023/10/04 01:30:05;;;;;;;14.15;4.07;;;;;;;11.50;100.00;101579.81;6026854;28;20033;-64
2023/10/04 01:33:03;;;;;;;9.45;3.97;;;;;;;11.46;100.00;101578.41;6027390;28;20145;-63
2023/10/04 01:35:58;;;;;;;11.68;4.20;;;;;;;11.52;100.00;101588.50;6027003;28;20038;-64
2023/10/04 01:38:53;;;;;;;11.57;3.50;;;;;;;11.48;100.00;101584.41;6026100;28;20532;-64
2023/10/04 01:41:49;;;;;;;9.57;3.43;;;;;;;11.47;100.00;101585.38;6026701;28;20026;-64
2023/10/04 01:44:44;;;;;;;10.00;3.13;;;;;;;11.42;100.00;101595.56;6027461;28;20301;-64
2023/10/04 01:47:40;;;;;;;10.87;3.37;;;;;;;11.49;100.00;101599.41;6026399;28;20125;-65
2023/10/04 01:50:36;;;;;;;7.28;3.10;;;;;;;11.48;100.00;101608.31;6027358;28;20034;-65
2023/10/04 01:53:33;;;;;;;12.00;3.33;;;;;;;11.33;100.00;101586.53;6026784;28;20128;-64
2023/10/04 01:56:28;;;;;;;13.43;4.18;;;;;;;11.48;100.00;101608.31;6026383;28;20081;-64
2023/10/04 01:59:24;;;;;;;8.03;3.43;;;;;;;11.53;100.00;101600.81;6026523;28;20046;-64
2023/10/04 02:02:19;;;;;;;9.57;3.17;;;;;;;11.70;100.00;101612.69;6020908;28;20057;-64
2023/10/04 02:05:19;;;;;;;8.88;2.70;;;;;;;11.77;100.00;101614.69;6023766;28;20537;-65
2023/10/04 02:08:16;;;;;;;11.50;3.05;;;;;;;11.88;100.00;101590.69;6025806;28;20070;-64
2023/10/04 02:11:11;;;;;;;8.38;3.08;;;;;;;11.93;100.00;101601.75;6019193;28;20046;-65
2023/10/04 02:14:07;;;;;;;10.13;2.60;;;;;;;11.82;100.00;101596.50;6026628;28;20037;-64
2023/10/04 02:17:08;;;;;;;10.43;2.45;;;;;;;11.82;100.00;101593.03;6026196;28;20096;-64
2023/10/04 02:20:07;;;;;;;6.97;2.53;;;;;;;11.86;100.00;101592.63;6024493;28;20066;-64
2023/10/04 02:23:07;;;;;;;10.10;3.13;;;;;;;11.97;100.00;101614.78;6026196;28;20469;-65
2023/10/04 02:26:05;;;;;;;9.90;2.85;;;;;;;11.99;100.00;101620.78;6025055;28;20022;-65
2023/10/04 02:29:01;;;;;;;8.23;2.55;;;;;;;11.91;100.00;101590.41;6025953;28;20027;-64
2023/10/04 02:31:56;;;;;;;10.03;2.53;;;;;;;11.94;100.00;101592.81;6026040;28;20053;-64
2023/10/04 02:34:54;;;;;;;10.13;3.03;;;;;;;11.97;100.00;101597.03;6025957;28;20520;-64
2023/10/04 02:37:54;;;;;;;8.15;2.70;;;;;;;11.99;100.00;101607.50;6025367;28;20096;-64
2023/10/04 02:40:53;;;;;;;8.38;2.88;;;;;;;12.03;100.00;101615.09;6026258;28;20117;-64
2023/10/04 02:43:48;;;;;;;7.75;3.17;;;;;;;12.00;100.00;101626.00;6025396;28;20081;-65
2023/10/04 02:46:45;;;;;;;9.27;2.63;;;;;;;12.05;100.00;101622.94;6025821;28;20046;-64
2023/10/04 02:49:40;;;;;;;7.43;3.05;;;;;;;11.96;100.00;101613.13;6026018;28;20034;-65
2023/10/04 02:52:37;;;;;;;8.27;2.60;;;;;;;12.05;100.00;101622.94;6025813;28;20474;-65
2023/10/04 02:55:32;;;;;;;11.03;3.27;;;;;;;12.06;100.00;101638.75;6025587;28;20046;-65
2023/10/04 02:58:29;;;;;;;9.27;3.20;;;;;;;12.00;100.00;101639.28;6023731;28;20037;-64
2023/10/04 03:01:26;;;;;;;8.00;2.95;;;;;;;11.92;100.00;101629.31;6024435;28;20437;-64
2023/10/04 03:04:22;;;;;;;11.30;3.53;;;;;;;11.82;100.00;101625.75;6025546;28;20120;-64
2023/10/04 03:07:17;;;;;;;13.37;3.83;;;;;;;11.86;100.00;101639.63;6027843;28;20095;-64
2023/10/04 03:10:14;;;;;;;13.52;3.55;;;;;;;11.79;100.00;101615.41;6033036;28;20364;-64
2023/10/04 03:13:15;;;;;;;10.68;4.10;;;;;;;11.92;100.00;101629.31;6033186;28;20481;-64
2023/10/04 03:16:10;;;;;;;8.75;3.80;;;;;;;11.89;100.00;101624.28;6033078;28;20031;-64
2023/10/04 03:19:06;;;;;;;7.32;3.35;;;;;;;11.88;100.00;101621.72;6031605;28;20501;-64
2023/10/04 03:22:01;;;;;;;9.40;4.15;;;;;;;11.89;100.00;101618.09;6033602;28;20402;-64
2023/10/04 03:24:57;;;;;;;10.93;4.50;;;;;;;12.04;100.00;101637.22;6033518;28;20077;-65
2023/10/04 03:27:53;;;;;;;11.50;4.23;;;;;;;12.01;100.00;101638.31;6032307;28;20048;-64
2023/10/04 03:30:49;;;;;;;8.27;3.53;;;;;;;11.99;100.00;101636.75;6033354;28;20773;-64
2023/10/04 03:33:45;;;;;;;9.82;3.67;;;;;;;12.04;100.00;101639.88;6031294;28;20053;-65
2023/10/04 03:36:46;;;;;;;11.68;3.80;;;;;;;12.03;100.00;101640.84;6033371;28;20073;-64
2023/10/04 03:39:41;;;;;;;10.90;3.60;;;;;;;12.02;100.00;101629.34;6032992;28;20049;-64
2023/10/04 03:42:38;;;;;;;9.65;4.28;;;;;;;12.09;100.00;101650.94;6032307;28;20494;-64
2023/10/04 03:45:41;;;;;;;9.93;3.53;;;;;;;12.00;100.00;101641.94;6033433;28;20074;-65
2023/10/04 03:48:37;;;;;;;9.60;3.63;;;;;;;12.07;100.00;101653.72;6032970;28;20645;-64
2023/10/04 03:51:33;;;;;;;10.43;3.72;;;;;;;12.08;100.00;101651.91;6033895;28;20092;-64
2023/10/04 03:54:28;;;;;;;11.45;3.78;;;;;;;12.05;100.00;101638.88;6032722;28;20413;-64
2023/10/04 03:57:25;;;;;;;10.80;3.20;;;;;;;12.03;100.00;101640.84;6030838;28;20038;-64
2023/10/04 04:00:22;;;;;;;9.65;3.47;;;;;;;12.00;100.00;101641.94;6036296;28;20084;-64
2023/10/04 04:03:18;;;;;;;8.65;3.38;;;;;;;11.93;100.00;101636.31;6032811;28;20030;-65
2023/10/04 04:06:14;;;;;;;8.77;3.60;;;;;;;12.09;100.00;101662.44;6032607;28;20034;-64
2023/10/04 04:09:10;;;;;;;9.03;3.63;;;;;;;12.13;100.00;101652.34;6032262;28;20531;-65
2023/10/04 04:12:05;;;;;;;10.65;3.60;;;;;;;11.90;100.00;101620.63;6033065;28;21260;-65
2023/10/04 04:15:07;;;;;;;11.40;3.83;;;;;;;12.11;100.00;101649.00;6031997;28;20044;-65
2023/10/04 04:18:06;;;;;;;10.98;3.50;;;;;;;12.08;100.00;101641.28;6029826;28;20027;-64
2023/10/04 04:21:05;;;;;;;8.63;3.38;;;;;;;12.08;100.00;101633.31;6029316;28;20065;-65
2023/10/04 04:24:00;;;;;;;6.57;2.85;;;;;;;12.12;100.00;101643.53;6028286;28;20031;-65
2023/10/04 04:26:58;;;;;;;9.47;3.40;;;;;;;12.15;100.00;101651.25;6028797;28;20434;-65
2023/10/04 04:29:53;;;;;;;7.20;3.10;;;;;;;12.08;100.00;101646.59;6028390;28;20376;-65
2023/10/04 04:32:53;;;;;;;9.90;3.30;;;;;;;12.04;100.00;101637.22;6029138;28;20481;-64
2023/10/04 04:35:51;;;;;;;10.13;3.30;;;;;;;11.86;100.00;101623.69;6027993;28;20066;-64
2023/10/04 04:38:47;;;;;;;7.72;3.72;;;;;;;11.78;100.00;101618.19;6022416;28;20093;-64
2023/10/04 04:41:42;;;;;;;9.80;3.45;;;;;;;11.85;100.00;101629.97;6012981;28;20026;-65
2023/10/04 04:44:42;;;;;;;9.20;4.30;;;;;;;11.82;100.00;101635.56;6022317;28;20656;-65
2023/10/04 04:47:40;;;;;;;11.88;3.90;;;;;;;11.71;100.00;101625.81;6027422;28;20145;-64
2023/10/04 04:50:35;;;;;;;10.93;4.05;;;;;;;11.73;100.00;101634.53;6028415;28;20037;-64
2023/10/04 04:53:33;;;;;;;6.35;3.38;;;;;;;11.74;100.00;101638.84;6027739;28;20433;-64
2023/10/04 04:56:28;;;;;;;12.05;4.38;;;;;;;11.75;100.00;101643.22;6026609;28;20045;-64
2023/10/04 04:59:24;;;;;;;10.73;3.67;;;;;;;11.74;100.00;101649.47;6025557;28;20034;-64
2023/10/04 05:02:19;;;;;;;8.43;3.13;;;;;;;11.73;100.00;101644.31;6028095;28;20035;-65
2023/10/04 05:05:14;;;;;;;13.13;4.37;;;;;;;11.65;100.00;101636.97;6028151;28;20046;-65
2023/10/04 05:08:10;;;;;;;12.03;4.57;;;;;;;11.69;100.00;101649.03;6024417;28;20034;-65
2023/10/04 05:11:06;;;;;;;10.80;3.60;;;;;;;11.70;100.00;101664.00;6027446;28;20149;-65
2023/10/04 05:14:02;;;;;;;10.45;3.63;;;;;;;11.68;100.00;101673.91;6027716;28;20398;-65
2023/10/04 05:16:57;;;;;;;12.00;4.05;;;;;;;11.63;100.00;101676.09;6024267;28;20041;-64
2023/10/04 05:19:53;;;;;;;13.13;3.90;;;;;;;11.52;100.00;101681.47;6024955;28;20050;-64
2023/10/04 05:22:50;;;;;;;8.33;3.73;;;;;;;11.50;100.00;101678.09;6027068;28;20026;-65
2023/10/04 05:25:45;;;;;;;7.78;3.70;;;;;;;11.52;100.00;101677.97;6022778;28;20038;-64
2023/10/04 05:28:40;;;;;;;7.83;4.57;;;;;;;11.65;100.00;101713.16;6026981;28;20104;-65
2023/10/04 05:31:37;;;;;;;8.20;4.03;;;;;;;11.63;100.00;101693.88;6027187;28;20281;-65
2023/10/04 05:34:32;;;;;;;8.88;3.92;;;;;;;11.60;100.00;101697.63;6026552;28;20034;-64
2023/10/04 05:37:28;;;;;;;11.35;3.95;;;;;;;11.63;100.00;101712.47;6018193;28;20371;-66
2023/10/04 05:40:25;;;;;;;12.80;4.45;;;;;;;11.59;100.00;101709.22;6024097;28;20026;-64
2023/10/04 05:43:20;;;;;;;10.23;4.18;;;;;;;11.66;100.00;101717.53;6022020;28;20458;-65
2023/10/04 05:46:16;;;;;;;9.47;4.50;;;;;;;11.59;100.00;101713.66;6013006;28;20105;-64
2023/10/04 05:49:11;;;;;;;10.80;4.47;;;;;;;11.56;100.00;101711.28;6016921;28;20126;-65
2023/10/04 05:52:06;;;;;;;9.37;4.90;;;;;;;11.59;100.00;101719.84;6011652;28;20073;-64
2023/10/04 05:55:03;;;;;;;11.18;4.97;;;;;;;11.52;100.00;101709.84;6026885;28;20063;-64
2023/10/04 05:57:58;;;;;;;12.23;4.63;;;;;;;11.50;100.00;101702.00;6025805;28;20026;-65
2023/10/04 06:00:54;;;;;;;14.07;5.13;;;;;;;11.49;100.00;101700.31;6015673;28;20046;-65
2023/10/04 06:03:49;;;;;;;12.25;4.63;;;;;;;11.56;100.00;101717.44;6018101;28;20026;-64
2023/10/04 06:06:45;;;;;;;11.40;5.30;;;;;;;11.51;100.00;101709.00;6012691;28;20082;-65
2023/10/04 06:09:45;;;;;;;9.57;5.43;;;;;;;11.59;100.00;101727.81;6015136;28;20042;-65
2023/10/04 06:12:40;;;;;;;11.55;5.70;;;;;;;11.57;100.00;101719.13;6016108;28;20027;-65
2023/10/04 06:15:35;;;;;;;12.50;5.40;;;;;;;11.54;100.00;101714.06;6019123;28;20118;-64
2023/10/04 06:18:31;;;;;;;13.20;5.47;;;;;;;11.63;100.00;101731.88;6015226;28;20497;-64
2023/10/04 06:21:26;;;;;;;14.73;6.37;;;;;;;11.56;100.00;101717.44;6006243;28;20059;-64
2023/10/04 06:24:22;;;;;;;17.15;6.45;;;;;;;11.58;100.00;101728.75;6013257;28;20634;-64
2023/10/04 06:27:17;;;;;;;11.35;5.85;;;;;;;11.59;100.00;101738.44;6017757;28;20113;-64
2023/10/04 06:30:13;;;;;;;11.57;6.38;;;;;;;11.63;100.00;101731.88;6016625;28;20034;-64
2023/10/04 06:33:10;;;;;;;13.75;6.18;;;;;;;11.52;100.00;101721.31;6023176;28;20034;-64
2023/10/04 06:36:05;;;;;;;17.45;7.00;;;;;;;11.52;100.00;101729.28;6018889;28;20538;-64
2023/10/04 06:39:00;;;;;;;19.13;7.53;;;;;;;11.58;100.00;101714.63;6009438;28;20077;-64
2023/10/04 06:41:56;;;;;;;15.00;6.37;;;;;;;11.66;100.00;101736.13;6018554;28;20038;-64
2023/10/04 06:44:52;;;;;;;12.23;6.50;;;;;;;11.68;100.00;101735.03;6024421;28;20038;-64
2023/10/04 06:47:49;;;;;;;14.57;6.95;;;;;;;11.82;100.00;101744.53;6009606;28;20065;-64
2023/10/04 06:50:45;;;;;;;17.73;7.35;;;;;;;11.82;100.00;101742.69;6018443;28;20035;-64
2023/10/04 06:53:43;;;;;;;20.27;6.97;;;;;;;12.01;100.00;101749.13;6010547;28;20065;-65
2023/10/04 06:56:38;;;;;;;14.43;6.65;;;;;;;12.01;100.00;101746.47;6015396;28;20389;-65
2023/10/04 06:59:34;;;;;;;15.60;6.37;;;;;;;12.15;100.00;101739.00;6021866;28;20035;-64
2023/10/04 07:02:29;;;;;;;14.07;6.33;;;;;;;12.41;100.00;101758.03;6010358;28;20086;-64
2023/10/04 07:05:26;;;;;;;12.93;6.40;;;;;;;12.48;100.00;101744.06;6013134;28;20066;-65
2023/10/04 07:08:22;;;;;;;13.45;6.22;;;;;;;12.58;100.00;101744.13;6022025;28;20023;-65
2023/10/04 07:11:17;;;;;;;10.63;6.00;;;;;;;12.77;100.00;101762.84;6022603;28;20049;-65
2023/10/04 07:14:12;;;;;;;11.60;5.53;;;;;;;12.88;100.00;101773.38;6023068;28;20038;-65
2023/10/04 07:17:09;;;;;;;11.37;5.90;;;;;;;12.90;100.00;101755.47;6013221;28;20486;-65
2023/10/04 07:20:14;;;;;;;12.55;6.15;;;;;;;13.08;100.00;101774.31;6018787;28;20384;-65
2023/10/04 07:23:10;;;;;;;12.95;6.50;;;;;;;13.10;100.00;101773.19;6011552;28;20042;-64
2023/10/04 07:26:09;;;;;;;14.07;6.25;;;;;;;13.32;100.00;101776.59;6017568;28;20030;-64
2023/10/04 07:29:04;;;;;;;10.27;5.30;;;;;;;13.35;100.00;101785.16;6018298;28;20061;-65
2023/10/04 07:32:00;;;;;;;12.30;5.73;;;;;;;13.45;100.00;101795.84;6021202;28;20050;-64
2023/10/04 07:34:55;;;;;;;11.25;5.97;;;;;;;13.42;100.00;101798.78;6023305;28;20026;-65
2023/10/04 07:37:51;;;;;;;13.43;6.63;;;;;;;13.47;100.00;101801.88;6025451;28;20110;-65
2023/10/04 07:40:46;;;;;;;9.98;5.72;;;;;;;13.48;100.00;101815.06;6023341;28;20696;-65
2023/10/04 07:43:42;;;;;;;14.03;5.97;;;;;;;13.37;100.00;101798.38;6021715;28;20073;-64
2023/10/04 07:46:37;;;;;;;12.95;5.60;;;;;;;13.51;100.00;101835.25;6018480;28;20019;-64
2023/10/04 07:49:33;;;;;;;13.77;5.67;;;;;;;13.60;100.00;101845.94;6019181;28;20038;-65
2023/10/04 07:52:29;;;;;;;13.67;5.80;;;;;;;13.45;100.00;101833.16;6014649;28;20025;-65
2023/10/04 07:55:25;;;;;;;10.30;5.55;;;;;;;13.33;100.00;101804.94;6019773;28;20755;-64
2023/10/04 07:58:20;;;;;;;14.13;6.07;;;;;;;13.71;100.00;101823.66;6020271;28;20026;-64
2023/10/04 08:01:17;;;;;;;15.90;5.07;;;;;;;13.90;100.00;101830.81;6024678;28;20469;-65
2023/10/04 08:04:12;;;;;;;9.32;5.03;;;;;;;13.95;100.00;101828.56;6017965;28;20090;-64
2023/10/04 08:07:14;;;;;;;11.90;4.90;;;;;;;13.83;100.00;101825.22;6023963;28;20030;-65
2023/10/04 08:10:09;;;;;;;16.05;5.25;;;;;;;13.88;100.00;101822.97;6023868;28;20042;-65
2023/10/04 08:13:05;;;;;;;12.80;5.13;;;;;;;13.99;100.00;101828.16;6027139;28;20061;-64
2023/10/04 08:16:04;;;;;;;9.50;4.63;;;;;;;14.16;100.00;101832.78;6023402;28;20022;-65
2023/10/04 08:19:01;;;;;;;11.25;4.65;;;;;;;14.15;100.00;101841.78;6020411;28;20068;-65
2023/10/04 08:21:56;;;;;;;14.10;5.10;;;;;;;14.10;100.00;101829.84;6012909;28;20528;-64
2023/10/04 08:24:53;;;;;;;12.90;5.20;;;;;;;14.21;100.00;101845.69;6018528;28;20034;-65
2023/10/04 08:27:49;;;;;;;8.07;4.57;;;;;;;14.17;100.00;101828.28;6019205;28;20027;-65
2023/10/04 08:30:44;;;;;;;10.23;4.73;;;;;;;14.18;100.00;101846.84;6020719;28;20033;-64
2023/10/04 08:33:43;;;;;;;8.27;3.70;;;;;;;14.22;100.00;101848.22;6017879;28;20269;-64
2023/10/04 08:36:40;;;;;;;9.75;4.10;;;;;;;14.26;100.00;101849.63;6023660;28;20026;-64
2023/10/04 08:39:37;;;;;;;10.02;4.47;;;;;;;14.27;100.00;101840.63;6018131;28;20442;-65
2023/10/04 08:42:33;;;;;;;9.98;4.25;;;;;;;14.32;100.00;101842.06;6016898;28;20041;-65
2023/10/04 08:45:29;;;;;;;11.30;4.20;;;;;;;14.41;100.00;101841.19;6018928;28;20038;-65
2023/10/04 08:48:26;;;;;;;11.82;4.13;;;;;;;14.32;100.00;101842.91;6015891;28;20053;-65
2023/10/04 08:51:50;;;;;;;12.95;5.00;;;;;;;14.53;100.00;101837.41;6026972;28;20105;-64
2023/10/04 08:54:50;;;;;;;9.57;4.00;;;;;;;14.65;100.00;101833.56;6013791;28;20038;-64
2023/10/04 08:57:46;;;;;;;13.57;4.93;;;;;;;14.64;100.00;101843.41;6021283;28;20416;-65
2023/10/04 09:00:44;;;;;;;9.95;4.25;;;;;;;14.62;100.00;101831.19;6013709;28;20034;-65
2023/10/04 09:03:40;;;;;;;11.40;4.32;;;;;;;14.69;100.00;101845.63;6013320;28;20070;-64
2023/10/04 09:06:36;;;;;;;13.35;4.70;;;;;;;14.82;100.00;101851.50;6019977;28;20398;-65
2023/10/04 09:09:32;;;;;;;9.95;3.90;;;;;;;14.52;100.00;101801.84;6015064;28;20492;-65
2023/10/04 09:12:27;;;;;;;10.63;4.47;;;;;;;14.84;100.00;101844.19;6014633;28;20031;-65
2023/10/04 09:15:24;;;;;;;6.50;3.53;;;;;;;14.96;100.00;101845.69;6014085;28;20034;-65
2023/10/04 09:18:26;;;;;;;11.10;4.03;;;;;;;15.13;100.00;101839.56;6021567;28;20105;-65
2023/10/04 09:21:21;;;;;;;14.63;4.47;;;;;;;14.97;100.00;101828.69;6016772;28;20046;-64
2023/10/04 09:24:17;;;;;;;7.50;3.17;;;;;;;15.18;100.00;101823.94;6025402;28;20083;-65
2023/10/04 09:27:13;;;;;;;11.93;3.20;;;;;;;15.49;100.00;101841.38;6013147;28;20385;-64
2023/10/04 09:30:24;;;;;;;10.63;3.25;;;;;;;15.59;100.00;101822.59;6008053;28;20040;-65
2023/10/04 09:33:24;;;;;;;9.05;3.58;;;;;;;15.64;100.00;101836.34;6018655;28;20497;-64
2023/10/04 09:36:33;;;;;;;;;;;;;;;15.81;100.00;101856.09;6026244;28;20045;-65
2023/10/04 09:39:31;;;;;;;8.48;4.05;;;;;;;15.69;100.00;101835.88;6012538;28;19916;-65
2023/10/04 09:42:26;;;;;;;7.63;3.45;;;;;;;15.73;100.00;101856.84;6018671;28;20038;-65
2023/10/04 09:45:24;;;;;;;7.43;3.73;;;;;;;15.66;100.00;101847.72;6016774;28;20478;-65
2023/10/04 09:48:19;;;;;;;10.13;3.08;;;;;;;15.90;100.00;101860.50;6026405;28;20771;-64
2023/10/04 09:51:16;;;;;;;9.33;3.63;;;;;;;15.75;100.00;101846.00;6028836;28;20036;-65
2023/10/04 09:54:11;;;;;;;10.18;3.65;;;;;;;15.48;100.00;101861.09;6030819;28;20038;-65
2023/10/04 09:57:08;;;;;;;8.90;3.60;;;;;;;15.53;100.00;101865.13;6019359;28;20082;-65
2023/10/04 10:00:06;;;;;;;6.22;3.67;;;;;;;15.73;100.00;101890.78;6012700;28;20153;-65
2023/10/04 10:03:04;;;;;;;9.48;3.55;;;;;;;15.93;98.09;101847.69;6012161;28;20043;-65
2023/10/04 10:06:00;;;;;;;7.32;2.83;;;;;;;16.19;94.19;101857.63;6017843;28;20033;-64
2023/10/04 10:08:58;;;;;;;10.48;3.47;;;;;;;16.16;94.68;101866.78;6010987;28;20053;-65
2023/10/04 10:11:54;;;;;;;9.50;3.33;;;;;;;15.96;96.25;101883.97;6013685;28;20052;-65
2023/10/04 10:14:49;;;;;;;9.63;3.70;;;;;;;15.59;96.43;101870.72;6016634;28;20089;-64
2023/10/04 10:17:46;;;;;;;9.30;2.90;;;;;;;15.64;98.22;101871.13;6021490;28;20397;-65
2023/10/04 10:20:42;;;;;;;10.80;2.70;;;;;;;16.29;95.82;101879.78;6022252;28;20372;-64
2023/10/04 10:23:58;;;;;;;6.30;3.25;;;;;;;16.90;93.48;101872.56;6022282;28;20033;-65
2023/10/04 10:27:03;;;;;;;10.88;2.95;;;;;;;17.13;88.99;101876.38;6015876;28;20034;-65
2023/10/04 10:30:02;;;;;;;10.32;2.80;;;;;;;17.18;86.83;101843.72;6014068;28;20497;-65
2023/10/04 10:32:59;;;;;;;7.57;2.67;;;;;;;17.16;86.51;101873.38;6014166;28;20031;-64
2023/10/04 10:35:59;;;;;;;7.60;2.40;;;;;;;17.53;85.73;101880.25;6016600;28;20110;-65
2023/10/04 10:38:54;;;;;;;9.10;2.60;;;;;;;17.27;85.51;101874.94;6020022;28;20061;-65
2023/10/04 10:41:50;;;;;;;9.13;3.03;;;;;;;16.77;88.55;101876.69;6021049;28;20084;-65
2023/10/04 10:44:46;;;;;;;9.60;2.65;;;;;;;16.44;89.35;101865.66;6023220;28;20034;-65
2023/10/04 10:47:42;;;;;;;10.65;2.90;;;;;;;16.38;90.96;101878.84;6019533;28;20478;-65
2023/10/04 10:50:40;;;;;;;9.60;3.07;;;;;;;16.42;90.72;101882.88;6025971;28;20035;-65
2023/10/04 10:53:35;;;;;;;8.88;2.72;;;;;;;16.41;89.96;101882.06;6016901;28;20515;-64
2023/10/04 10:56:37;;;;;;;9.07;2.47;;;;;;;17.07;87.42;101885.03;6020273;28;20042;-65
2023/10/04 10:59:34;;;;;;;13.30;3.28;;;;;;;17.02;86.22;101865.06;6012632;28;20280;-65
2023/10/04 11:02:29;;;;;;;6.35;2.25;;;;;;;17.43;83.26;101883.03;6018862;28;20030;-65
2023/10/04 11:05:25;;;;;;;12.50;2.67;;;;;;;17.17;81.55;101880.44;6014495;28;20082;-64
2023/10/04 11:08:21;;;;;;;7.20;2.35;;;;;;;16.92;81.91;101885.81;6016685;28;20511;-64
2023/10/04 11:11:16;;;;;;;6.00;2.30;;;;;;;16.86;81.71;101883.75;6020182;28;20034;-65
2023/10/04 11:14:16;;;;;;;11.90;2.40;;;;;;;16.72;83.80;101876.28;6014468;28;20026;-65
2023/10/04 11:17:11;;;;;;;6.55;2.40;;;;;;;16.92;84.61;101867.88;6016665;28;20467;-65
2023/10/04 11:20:09;;;;;;;8.60;2.17;;;;;;;17.32;82.54;101891.38;6016507;28;20038;-65
2023/10/04 11:23:05;;;;;;;8.07;2.50;;;;;;;17.15;80.52;101889.59;6022675;28;20316;-64
2023/10/04 11:26:01;;;;;;;7.57;2.50;;;;;;;17.35;79.64;101860.72;6018263;28;20036;-65
2023/10/04 11:28:57;;;;;;;10.63;3.00;;;;;;;17.11;77.57;101870.34;6019925;28;20030;-65
2023/10/04 11:31:53;;;;;;;6.65;2.75;;;;;;;16.72;79.04;101869.09;6034078;28;20034;-65
2023/10/04 11:34:48;;;;;;;8.07;2.58;;;;;;;16.64;80.67;101866.34;6028262;28;20414;-65
2023/10/04 11:37:44;;;;;;;7.63;2.92;;;;;;;16.91;81.15;101873.38;6026767;28;20125;-65
2023/10/04 11:40:40;;;;;;;10.00;2.92;;;;;;;17.00;79.13;101867.09;6023310;28;20030;-65
2023/10/04 11:43:38;;;;;;;7.40;2.15;;;;;;;17.06;76.83;101858.41;6025302;28;20045;-65
2023/10/04 11:46:53;;;;;;;9.10;2.20;;;;;;;17.44;78.32;101860.59;6026988;28;20030;-65
2023/10/04 11:49:59;;;;;;;6.03;2.33;;;;;;;17.43;74.82;101858.91;6038215;28;20033;-65
2023/10/04 11:52:57;;;;;;;6.07;2.28;;;;;;;17.82;75.70;101862.75;6027658;28;20034;-64
2023/10/04 11:55:59;;;;;;;6.18;2.35;;;;;;;18.02;71.03;101851.69;6020803;28;20108;-64
2023/10/04 11:58:55;;;;;;;7.53;2.75;;;;;;;17.72;71.17;101851.28;6018343;28;20504;-65
2023/10/04 12:01:53;;;;;;;7.37;2.57;;;;;;;17.47;70.46;101828.09;6018737;28;20039;-64
2023/10/04 12:04:49;;;;;;;7.30;2.50;;;;;;;17.39;72.32;101856.72;6025305;28;20640;-64
2023/10/04 12:07:44;;;;;;;7.40;2.83;;;;;;;17.16;74.30;101845.72;6017298;28;20113;-65
2023/10/04 12:10:40;;;;;;;6.70;2.15;;;;;;;16.97;75.05;101838.75;6019648;28;20141;-65
2023/10/04 12:13:35;;;;;;;8.97;2.50;;;;;;;17.22;72.85;101848.59;6018218;28;20030;-65
2023/10/04 12:16:32;;;;;;;11.43;2.47;;;;;;;17.18;72.58;101827.63;6019885;28;20393;-65
2023/10/04 12:19:30;;;;;;;5.80;2.22;;;;;;;17.21;70.64;101843.38;6023765;28;20038;-64
2023/10/04 12:22:25;;;;;;;7.57;2.47;;;;;;;16.82;70.81;101831.50;6019596;28;20050;-65
2023/10/04 12:25:22;;;;;;;7.23;2.07;;;;;;;16.96;73.18;101831.72;6014242;28;20146;-64
2023/10/04 12:28:19;;;;;;;6.57;2.10;;;;;;;17.18;73.55;101839.19;6017161;28;20361;-65
2023/10/04 12:31:15;;;;;;;10.25;2.45;;;;;;;17.16;72.49;101845.72;6027401;28;20078;-65
2023/10/04 12:34:10;;;;;;;7.35;2.33;;;;;;;16.97;72.59;101838.75;6020326;28;20585;-64
2023/10/04 12:37:06;;;;;;;7.93;2.20;;;;;;;16.92;73.73;101850.97;6020360;28;20034;-65
2023/10/04 12:40:04;;;;;;;8.40;2.40;;;;;;;16.89;73.08;101829.84;6018179;28;20250;-65
2023/10/04 12:42:59;;;;;;;8.70;2.03;;;;;;;16.92;72.45;101842.94;6020728;28;20074;-65
2023/10/04 12:45:55;;;;;;;8.60;3.13;;;;;;;17.27;71.09;101842.75;6019015;28;20497;-65
2023/10/04 12:48:50;;;;;;;7.88;2.28;;;;;;;17.59;69.13;101834.00;6019917;28;20518;-65
2023/10/04 12:51:46;;;;;;;12.70;2.40;;;;;;;17.51;69.38;101832.09;6017934;28;20031;-65
2023/10/04 12:54:41;;;;;;;7.93;2.13;;;;;;;17.58;69.53;101846.56;6015000;28;20478;-65
2023/10/04 12:57:40;;;;;;;9.07;2.33;;;;;;;17.49;71.16;101828.75;6020015;28;20274;-64
2023/10/04 13:00:35;;;;;;;8.05;2.65;;;;;;;17.59;69.45;101829.47;6010037;28;20042;-65
2023/10/04 13:03:31;;;;;;;7.93;2.45;;;;;;;17.64;70.15;101824.44;6013578;28;20038;-65
2023/10/04 13:06:28;;;;;;;10.10;2.40;;;;;;;17.39;69.24;101833.41;6018311;28;20041;-65
2023/10/04 13:09:27;;;;;;;9.48;2.30;;;;;;;17.33;70.29;101830.53;6017468;28;20137;-65
2023/10/04 13:12:22;;;;;;;4.47;1.77;;;;;;;17.26;70.07;101808.88;6013346;28;20050;-65
2023/10/04 13:15:17;;;;;;;7.07;1.83;;;;;;;17.20;70.43;101825.66;6013340;28;20489;-65
2023/10/04 13:18:13;;;;;;;6.70;2.33;;;;;;;17.23;72.11;101825.28;6017075;28;20038;-65
2023/10/04 13:21:11;;;;;;;8.25;2.05;;;;;;;17.09;68.76;101820.56;6015274;28;20035;-65
2023/10/04 13:24:06;;;;;;;9.90;2.05;;;;;;;16.85;69.42;101820.47;6013795;28;20034;-65
2023/10/04 13:27:02;;;;;;;7.93;1.90;;;;;;;16.97;70.18;101830.72;6013440;28;20076;-65
2023/10/04 13:29:57;;;;;;;9.77;1.83;;;;;;;16.94;69.60;101814.13;6008033;28;20125;-65